createdAt,value
2018-11-26T00:01:32.119Z,37.45
2018-11-26T00:03:10.662Z,39.55
2018-11-26T00:04:45.143Z,36.17
2018-11-26T00:06:19.624Z,36.80
2018-11-26T00:07:54.211Z,37.00
2018-11-26T00:09:28.795Z,39.23
2018-11-26T00:11:45.226Z,40.75
2018-11-26T00:13:19.747Z,35.15
2018-11-26T00:14:54.191Z,37.90
2018-11-26T00:16:28.655Z,42.62
2018-11-26T00:18:03.213Z,42.98
2018-11-26T00:19:37.690Z,41.60
2018-11-26T00:21:12.232Z,38.70
2018-11-26T00:22:46.619Z,38.38
2018-11-26T00:24:21.136Z,39.60
2018-11-26T00:25:55.622Z,39.18
2018-11-26T00:27:30.254Z,41.88
2018-11-26T00:29:04.761Z,38.58
2018-11-26T00:30:39.372Z,41.08
2018-11-26T00:32:13.920Z,41.92
2018-11-26T00:33:48.412Z,45.12
2018-11-26T00:35:22.941Z,40.03
2018-11-26T00:36:57.432Z,43.75
2018-11-26T00:38:31.935Z,44.65
2018-11-26T00:40:08.209Z,47.75
2018-11-26T00:41:42.798Z,46.58
2018-11-26T00:43:17.303Z,47.67
2018-11-26T00:44:51.896Z,44.95
2018-11-26T00:46:26.433Z,41.30
2018-11-26T00:48:01.061Z,42.35
2018-11-26T00:49:35.529Z,45.17
2018-11-26T00:51:10.197Z,42.83
2018-11-26T00:52:44.643Z,43.85
2018-11-26T00:54:19.159Z,45.23
2018-11-26T00:55:53.626Z,47.03
2018-11-26T00:57:28.225Z,48.83
2018-11-26T00:59:02.716Z,51.10
2018-11-26T01:00:37.275Z,51.63
2018-11-26T01:02:12.421Z,51.42
2018-11-26T01:03:47.139Z,48.42
2018-11-26T01:05:31.890Z,46.75
2018-11-26T01:07:07.019Z,52.33
2018-11-26T01:08:41.782Z,51.05
2018-11-26T01:10:16.484Z,51.77
2018-11-26T01:11:51.191Z,49.93
2018-11-26T01:13:25.847Z,53.38
2018-11-26T01:15:00.581Z,55.55
2018-11-26T01:16:35.107Z,53.40
2018-11-26T01:18:09.881Z,52.62
2018-11-26T01:19:45.858Z,55.17
2018-11-26T01:21:20.692Z,56.80
2018-11-26T01:22:55.511Z,52.00
2018-11-26T01:24:30.220Z,48.13
2018-11-26T01:26:05.069Z,54.10
2018-11-26T01:27:39.928Z,49.50
2018-11-26T01:29:14.696Z,49.53
2018-11-26T01:30:49.430Z,49.95
2018-11-26T01:32:25.012Z,51.75
2018-11-26T01:34:00.057Z,49.88
2018-11-26T01:35:35.096Z,49.15
2018-11-26T01:37:10.215Z,49.93
2018-11-26T01:38:45.353Z,50.75
2018-11-26T01:40:24.206Z,53.55
2018-11-26T01:41:59.106Z,52.75
2018-11-26T01:43:33.919Z,50.85
2018-11-26T01:45:08.831Z,50.23
2018-11-26T01:46:43.812Z,51.28
2018-11-26T01:48:18.482Z,49.85
2018-11-26T01:49:53.228Z,50.90
2018-11-26T01:51:28.207Z,53.40
2018-11-26T01:53:02.827Z,56.40
2018-11-26T01:54:37.457Z,59.77
2018-11-26T01:56:12.181Z,54.48
2018-11-26T01:57:46.828Z,58.50
2018-11-26T01:59:21.396Z,54.90
2018-11-26T02:00:55.967Z,54.83
2018-11-26T02:02:30.482Z,58.35
2018-11-26T02:04:04.998Z,56.77
2018-11-26T02:05:39.649Z,63.20
2018-11-26T02:07:14.329Z,59.25
2018-11-26T02:08:48.995Z,60.80
2018-11-26T02:10:23.521Z,67.78
2018-11-26T02:11:58.096Z,63.87
2018-11-26T02:13:32.742Z,64.35
2018-11-26T02:15:19.005Z,61.28
2018-11-26T02:16:53.669Z,58.83
2018-11-26T02:18:28.375Z,66.70
2018-11-26T02:20:03.079Z,69.05
2018-11-26T02:21:37.761Z,61.95
2018-11-26T02:23:12.559Z,62.85
2018-11-26T02:24:47.465Z,60.98
2018-11-26T02:26:21.612Z,62.27
2018-11-26T02:27:55.715Z,63.15
2018-11-26T02:29:29.809Z,58.50
2018-11-26T02:31:03.977Z,64.77
2018-11-26T02:32:38.139Z,64.53
2018-11-26T02:34:12.315Z,65.65
2018-11-26T02:35:46.497Z,61.25
2018-11-26T02:37:20.647Z,70.62
2018-11-26T02:38:54.765Z,65.28
2018-11-26T02:40:30.956Z,64.47
2018-11-26T02:42:05.106Z,64.53
2018-11-26T02:43:39.236Z,72.10
2018-11-26T02:45:13.372Z,70.08
2018-11-26T02:46:47.428Z,72.03
2018-11-26T02:48:21.898Z,74.20
2018-11-26T02:49:56.078Z,71.95
2018-11-26T02:51:30.192Z,72.37
2018-11-26T02:53:04.282Z,70.12
2018-11-26T02:54:38.386Z,69.42
2018-11-26T02:56:12.419Z,74.87
2018-11-26T02:57:46.486Z,78.25
2018-11-26T02:59:20.485Z,72.72
2018-11-26T03:00:54.559Z,77.82
2018-11-26T03:02:28.663Z,81.17
2018-11-26T03:04:02.769Z,76.02
2018-11-26T03:05:36.842Z,85.20
2018-11-26T03:07:10.909Z,71.30
2018-11-26T03:08:45.027Z,72.87
2018-11-26T03:10:19.065Z,74.50
2018-11-26T03:11:53.103Z,81.85
2018-11-26T03:13:27.243Z,85.87
2018-11-26T03:15:01.238Z,87.02
2018-11-26T03:16:35.300Z,78.65
2018-11-26T03:18:09.330Z,77.72
2018-11-26T03:19:43.418Z,86.00
2018-11-26T03:21:17.477Z,104.65
2018-11-26T03:22:51.453Z,91.10
2018-11-26T03:24:25.429Z,99.80
2018-11-26T03:25:59.464Z,104.32
2018-11-26T03:27:33.467Z,90.45
2018-11-26T03:29:07.429Z,107.58
2018-11-26T03:30:41.531Z,104.90
2018-11-26T03:32:15.514Z,110.12
2018-11-26T03:33:49.552Z,116.57
2018-11-26T03:35:23.550Z,128.25
2018-11-26T03:36:57.661Z,118.42
2018-11-26T03:38:49.181Z,121.62
2018-11-26T03:40:23.240Z,121.55
2018-11-26T03:41:57.374Z,128.93
2018-11-26T03:43:31.463Z,121.35
2018-11-26T03:45:07.712Z,125.60
2018-11-26T03:46:41.733Z,125.90
2018-11-26T03:48:15.821Z,129.85
2018-11-26T03:49:50.115Z,127.17
2018-11-26T03:51:24.273Z,125.35
2018-11-26T03:52:58.272Z,124.15
2018-11-26T03:54:32.371Z,127.60
2018-11-26T03:56:07.267Z,129.93
2018-11-26T03:57:41.405Z,121.45
2018-11-26T03:59:15.410Z,132.65
2018-11-26T04:00:53.237Z,148.87
2018-11-26T04:02:27.230Z,135.22
2018-11-26T04:04:01.341Z,131.63
2018-11-26T04:05:35.361Z,140.05
2018-11-26T04:07:09.362Z,143.95
2018-11-26T04:08:43.399Z,142.95
2018-11-26T04:10:17.554Z,140.22
2018-11-26T04:11:51.609Z,141.37
2018-11-26T04:13:25.740Z,146.90
2018-11-26T04:14:59.907Z,141.68
2018-11-26T04:16:34.157Z,133.78
2018-11-26T04:18:08.446Z,128.45
2018-11-26T04:19:43.378Z,138.92
2018-11-26T04:21:17.432Z,135.60
2018-11-26T04:22:51.520Z,148.15
2018-11-26T04:24:28.341Z,145.12
2018-11-26T04:26:02.335Z,139.43
2018-11-26T04:27:36.364Z,147.55
2018-11-26T04:29:10.448Z,138.15
2018-11-26T04:30:44.453Z,143.80
2018-11-26T04:32:18.437Z,143.50
2018-11-26T04:33:52.623Z,134.20
2018-11-26T04:35:26.680Z,130.50
2018-11-26T04:37:00.660Z,136.35
2018-11-26T04:38:34.659Z,144.05
2018-11-26T04:40:09.996Z,138.77
2018-11-26T04:41:44.068Z,135.57
2018-11-26T04:43:18.057Z,149.62
2018-11-26T04:44:52.018Z,138.52
2018-11-26T04:46:26.040Z,131.00
2018-11-26T04:48:00.161Z,133.37
2018-11-26T04:49:34.141Z,146.20
2018-11-26T04:51:08.204Z,143.43
2018-11-26T04:52:42.242Z,147.75
2018-11-26T04:54:16.286Z,142.15
2018-11-26T04:55:50.381Z,144.85
2018-11-26T04:57:24.367Z,141.55
2018-11-26T04:58:58.377Z,128.80
2018-11-26T05:00:32.442Z,151.30
2018-11-26T05:02:06.485Z,134.87
2018-11-26T05:03:41.280Z,143.30
2018-11-26T05:05:15.251Z,131.57
2018-11-26T05:06:49.430Z,130.00
2018-11-26T05:08:23.408Z,142.98
2018-11-26T05:09:57.381Z,133.15
2018-11-26T05:11:31.393Z,139.12
2018-11-26T05:13:05.471Z,140.30
2018-11-26T05:14:39.428Z,150.57
2018-11-26T05:16:14.466Z,144.07
2018-11-26T05:17:47.596Z,139.90
2018-11-26T05:19:21.717Z,138.20
2018-11-26T05:20:55.707Z,146.40
2018-11-26T05:22:29.796Z,150.82
2018-11-26T05:24:03.792Z,148.35
2018-11-26T05:25:37.886Z,142.98
2018-11-26T05:27:11.904Z,136.00
2018-11-26T05:28:45.918Z,143.45
2018-11-26T05:30:19.922Z,139.03
2018-11-26T05:31:54.000Z,148.68
2018-11-26T05:33:28.000Z,143.82
2018-11-26T05:35:02.054Z,131.15
2018-11-26T05:36:36.087Z,143.02
2018-11-26T05:38:10.226Z,134.85
2018-11-26T05:39:44.230Z,141.05
2018-11-26T05:41:18.181Z,137.50
2018-11-26T05:42:52.162Z,142.50
2018-11-26T05:44:26.234Z,133.50
2018-11-26T05:46:00.226Z,136.25
2018-11-26T05:47:34.282Z,133.22
2018-11-26T05:49:08.385Z,135.48
2018-11-26T05:50:42.439Z,131.65
2018-11-26T05:52:16.502Z,126.42
2018-11-26T05:53:50.561Z,134.82
2018-11-26T05:55:24.583Z,138.35
2018-11-26T05:56:58.612Z,120.45
2018-11-26T05:58:32.719Z,123.95
2018-11-26T06:00:11.229Z,125.55
2018-11-26T06:01:45.275Z,122.28
2018-11-26T06:03:19.377Z,126.67
2018-11-26T06:04:53.376Z,126.55
2018-11-26T06:06:27.377Z,124.45
2018-11-26T06:08:01.393Z,119.13
2018-11-26T06:09:35.446Z,135.07
2018-11-26T06:11:09.462Z,134.50
2018-11-26T06:12:43.525Z,118.82
2018-11-26T06:14:17.571Z,127.12
2018-11-26T06:15:51.634Z,139.03
2018-11-26T06:17:25.677Z,122.90
2018-11-26T06:18:59.665Z,129.10
2018-11-26T06:20:33.673Z,129.65
2018-11-26T06:22:07.778Z,138.07
2018-11-26T06:23:41.765Z,132.05
2018-11-26T06:25:17.112Z,130.43
2018-11-26T06:26:51.985Z,128.05
2018-11-26T06:28:25.343Z,135.88
2018-11-26T06:29:59.361Z,129.97
2018-11-26T06:31:33.370Z,140.43
2018-11-26T06:33:07.433Z,128.45
2018-11-26T06:34:42.543Z,127.20
2018-11-26T06:36:15.643Z,131.60
2018-11-26T06:37:49.653Z,140.28
2018-11-26T06:39:23.624Z,131.72
2018-11-26T06:40:57.709Z,128.15
2018-11-26T06:42:31.725Z,130.20
2018-11-26T06:44:06.974Z,123.35
2018-11-26T06:45:41.117Z,126.22
2018-11-26T06:47:15.169Z,129.00
2018-11-26T06:48:49.214Z,131.18
2018-11-26T06:50:25.837Z,137.47
2018-11-26T06:52:19.989Z,125.55
2018-11-26T06:53:54.294Z,120.87
2018-11-26T06:55:28.339Z,119.22
2018-11-26T06:57:02.400Z,124.35
2018-11-26T06:58:44.909Z,127.65
2018-11-26T07:00:19.938Z,120.80
2018-11-26T07:01:53.930Z,116.05
2018-11-26T07:03:27.968Z,123.95
2018-11-26T07:05:02.043Z,116.67
2018-11-26T07:06:36.061Z,131.27
2018-11-26T07:08:10.097Z,120.80
2018-11-26T07:09:44.050Z,126.82
2018-11-26T07:11:18.115Z,124.75
2018-11-26T07:12:53.911Z,125.72
2018-11-26T07:14:27.907Z,124.67
2018-11-26T07:16:01.926Z,126.95
2018-11-26T07:17:36.029Z,124.42
2018-11-26T07:19:10.061Z,127.15
2018-11-26T07:20:44.139Z,117.10
2018-11-26T07:22:18.163Z,120.42
2018-11-26T07:23:52.262Z,131.10
2018-11-26T07:25:26.338Z,125.87
2018-11-26T07:27:00.333Z,132.10
2018-11-26T07:28:34.345Z,124.50
2018-11-26T07:30:14.330Z,122.13
2018-11-26T07:31:48.396Z,129.53
2018-11-26T07:33:22.423Z,121.35
2018-11-26T07:34:56.447Z,122.42
2018-11-26T07:36:30.489Z,132.12
2018-11-26T07:38:04.569Z,130.05
2018-11-26T07:39:38.622Z,124.38
2018-11-26T07:41:12.665Z,127.32
2018-11-26T07:42:52.280Z,122.67
2018-11-26T07:44:26.287Z,141.95
2018-11-26T07:46:00.774Z,125.53
2018-11-26T07:47:34.911Z,144.15
2018-11-26T07:49:09.060Z,146.30
2018-11-26T07:50:43.085Z,135.32
2018-11-26T07:52:17.137Z,142.60
2018-11-26T07:53:51.269Z,125.02
2018-11-26T07:55:25.552Z,135.37
2018-11-26T07:56:59.541Z,132.63
2018-11-26T07:58:33.588Z,137.28
2018-11-26T08:00:10.846Z,124.35
2018-11-26T08:01:45.546Z,143.22
2018-11-26T08:03:19.543Z,128.72
2018-11-26T08:04:53.652Z,126.90
2018-11-26T08:06:27.705Z,124.82
2018-11-26T08:08:01.748Z,134.70
2018-11-26T08:09:35.696Z,122.85
2018-11-26T08:11:09.660Z,132.25
2018-11-26T08:12:44.034Z,123.20
2018-11-26T08:14:18.049Z,130.93
2018-11-26T08:15:51.996Z,130.07
2018-11-26T08:17:25.933Z,125.38
2018-11-26T08:18:59.968Z,118.57
2018-11-26T08:20:33.889Z,134.95
2018-11-26T08:22:10.853Z,124.27
2018-11-26T08:23:44.827Z,141.10
2018-11-26T08:25:20.328Z,131.55
2018-11-26T08:26:54.286Z,129.00
2018-11-26T08:28:28.227Z,128.78
2018-11-26T08:30:02.222Z,117.08
2018-11-26T08:31:36.254Z,121.60
2018-11-26T08:33:10.237Z,125.70
2018-11-26T08:34:44.192Z,145.47
2018-11-26T08:36:22.301Z,132.93
2018-11-26T08:38:01.553Z,139.70
2018-11-26T08:39:36.354Z,144.00
2018-11-26T08:41:15.249Z,130.00
2018-11-26T08:43:06.621Z,135.22
2018-11-26T08:44:41.454Z,136.68
2018-11-26T08:47:22.110Z,140.52
2018-11-26T08:49:01.196Z,130.00
2018-11-26T08:50:35.179Z,139.75
2018-11-26T08:52:09.155Z,142.28
2018-11-26T08:53:43.209Z,132.22
2018-11-26T08:55:17.172Z,126.15
2018-11-26T08:56:51.168Z,124.67
2018-11-26T08:58:25.194Z,120.05
2018-11-26T08:59:59.228Z,126.70
2018-11-26T09:01:35.773Z,123.62
2018-11-26T09:03:15.013Z,120.05
2018-11-26T09:04:53.108Z,130.93
2018-11-26T09:06:27.157Z,124.22
2018-11-26T09:08:01.145Z,113.35
2018-11-26T09:09:35.104Z,121.22
2018-11-26T09:11:09.969Z,123.10
2018-11-26T09:12:44.029Z,117.33
2018-11-26T09:14:18.009Z,126.25
2018-11-26T09:15:51.969Z,116.85
2018-11-26T09:17:25.896Z,111.12
2018-11-26T09:18:59.905Z,113.70
2018-11-26T09:20:33.887Z,106.87
2018-11-26T09:22:07.789Z,111.08
2018-11-26T09:23:41.724Z,118.62
2018-11-26T09:25:15.731Z,110.12
2018-11-26T09:26:49.861Z,113.55
2018-11-26T09:28:23.824Z,111.17
2018-11-26T09:29:57.765Z,109.05
2018-11-26T09:31:32.494Z,111.42
2018-11-26T09:33:06.196Z,105.35
2018-11-26T09:34:40.145Z,102.58
2018-11-26T09:36:14.078Z,110.85
2018-11-26T09:37:48.113Z,112.15
2018-11-26T09:39:22.089Z,122.50
2018-11-26T09:40:56.175Z,119.33
2018-11-26T09:42:30.113Z,120.80
2018-11-26T09:44:04.165Z,121.33
2018-11-26T09:45:40.505Z,127.25
2018-11-26T09:47:12.132Z,114.22
2018-11-26T09:48:46.085Z,131.30
2018-11-26T09:50:21.711Z,123.05
2018-11-26T09:51:55.683Z,132.70
2018-11-26T09:53:29.709Z,122.82
2018-11-26T09:55:03.684Z,116.40
2018-11-26T09:56:37.764Z,120.75
2018-11-26T09:58:11.987Z,113.28
2018-11-26T09:59:45.933Z,123.90
2018-11-26T10:01:19.914Z,101.45
2018-11-26T10:02:53.951Z,108.87
2018-11-26T10:04:27.893Z,99.80
2018-11-26T10:06:01.914Z,95.62
2018-11-26T10:07:35.905Z,90.90
2018-11-26T10:09:11.133Z,93.42
2018-11-26T10:10:45.073Z,92.85
2018-11-26T10:12:19.828Z,78.67
2018-11-26T10:13:53.949Z,84.92
2018-11-26T10:15:28.424Z,67.82
2018-11-26T10:17:02.350Z,71.97
2018-11-26T10:18:36.320Z,71.10
2018-11-26T10:20:11.337Z,67.30
2018-11-26T10:21:45.392Z,64.27
2018-11-26T10:23:19.332Z,72.67
2018-11-26T10:24:53.315Z,71.15
2018-11-26T10:26:27.300Z,60.20
2018-11-26T10:28:01.322Z,62.85
2018-11-26T10:29:35.289Z,67.82
2018-11-26T10:31:09.241Z,69.07
2018-11-26T10:32:43.480Z,60.75
2018-11-26T10:34:17.496Z,63.08
2018-11-26T10:35:51.483Z,63.95
2018-11-26T10:37:25.556Z,56.55
2018-11-26T10:38:59.536Z,59.93
2018-11-26T10:40:33.571Z,57.20
2018-11-26T10:42:07.482Z,55.43
2018-11-26T10:43:41.437Z,52.35
2018-11-26T10:45:16.544Z,57.55
2018-11-26T10:46:50.597Z,56.92
2018-11-26T10:48:24.528Z,57.93
2018-11-26T10:49:58.446Z,61.05
2018-11-26T10:51:32.368Z,55.38
2018-11-26T10:53:06.624Z,57.03
2018-11-26T10:54:40.600Z,55.05
2018-11-26T10:56:14.552Z,51.23
2018-11-26T10:57:48.536Z,53.40
2018-11-26T10:59:22.568Z,52.03
2018-11-26T11:00:58.503Z,52.78
2018-11-26T11:02:37.599Z,50.50
2018-11-26T11:04:11.558Z,45.20
2018-11-26T11:05:45.569Z,55.30
2018-11-26T11:07:19.536Z,47.85
2018-11-26T11:08:53.488Z,49.42
2018-11-26T11:10:28.819Z,53.55
2018-11-26T11:12:02.969Z,49.48
2018-11-26T11:13:36.926Z,48.95
2018-11-26T11:15:12.246Z,51.25
2018-11-26T11:16:46.213Z,50.88
2018-11-26T11:18:22.433Z,52.35
2018-11-26T11:19:56.401Z,47.53
2018-11-26T11:21:30.332Z,51.68
2018-11-26T11:23:04.336Z,51.90
2018-11-26T11:24:38.624Z,53.98
2018-11-26T11:26:12.688Z,57.20
2018-11-26T11:27:46.866Z,52.08
2018-11-26T11:29:20.917Z,57.15
2018-11-26T11:30:55.049Z,75.25
2018-11-26T11:32:29.091Z,47.70
2018-11-26T11:34:03.128Z,50.60
2018-11-26T11:35:37.173Z,49.70
2018-11-26T11:37:11.286Z,47.20
2018-11-26T11:38:45.310Z,54.95
2018-11-26T11:40:20.508Z,54.23
2018-11-26T11:41:54.545Z,49.95
2018-11-26T11:43:28.652Z,51.42
2018-11-26T11:45:02.634Z,50.33
2018-11-26T11:46:36.630Z,58.15
2018-11-26T11:48:10.648Z,49.03
2018-11-26T11:49:44.771Z,46.75
2018-11-26T11:51:19.125Z,48.05
2018-11-26T11:52:52.878Z,48.45
2018-11-26T11:54:26.879Z,53.60
2018-11-26T11:56:01.063Z,47.98
2018-11-26T11:57:35.121Z,49.13
2018-11-26T11:59:09.202Z,49.93
2018-11-26T12:00:45.302Z,51.73
2018-11-26T12:02:19.433Z,51.02
2018-11-26T12:03:53.511Z,50.28
2018-11-26T12:05:27.515Z,50.00
2018-11-26T12:07:01.565Z,49.58
2018-11-26T12:08:35.737Z,54.80
2018-11-26T12:10:11.287Z,54.38
2018-11-26T12:11:46.223Z,59.40
2018-11-26T12:13:20.335Z,52.50
2018-11-26T12:14:54.650Z,48.52
2018-11-26T12:16:28.803Z,47.35
2018-11-26T12:18:03.352Z,46.95
2018-11-26T12:19:37.666Z,47.20
2018-11-26T12:21:11.841Z,48.20
2018-11-26T12:22:46.270Z,48.85
2018-11-26T12:24:20.434Z,47.75
2018-11-26T12:25:54.585Z,53.58
2018-11-26T12:27:29.373Z,48.80
2018-11-26T12:29:03.467Z,48.02
2018-11-26T12:30:40.074Z,53.40
2018-11-26T12:32:14.174Z,51.02
2018-11-26T12:33:48.355Z,52.15
2018-11-26T12:35:22.623Z,54.55
2018-11-26T12:36:57.916Z,50.33
2018-11-26T12:38:31.873Z,50.43
2018-11-26T12:40:08.083Z,55.20
2018-11-26T12:41:42.271Z,57.60
2018-11-26T12:43:16.412Z,57.38
2018-11-26T12:44:51.359Z,56.00
2018-11-26T12:46:25.613Z,56.60
2018-11-26T12:47:59.805Z,60.65
2018-11-26T12:49:34.101Z,58.90
2018-11-26T12:51:08.200Z,59.75
2018-11-26T12:52:42.436Z,55.65
2018-11-26T12:54:16.642Z,63.85
2018-11-26T12:55:50.718Z,60.23
2018-11-26T12:57:25.636Z,71.07
2018-11-26T12:58:59.800Z,63.05
2018-11-26T13:00:34.134Z,57.25
2018-11-26T13:02:08.940Z,61.23
2018-11-26T13:03:42.743Z,62.62
2018-11-26T13:05:18.104Z,60.43
2018-11-26T13:06:52.235Z,59.33
2018-11-26T13:08:26.293Z,64.62
2018-11-26T13:10:00.334Z,58.83
2018-11-26T13:11:34.469Z,64.77
2018-11-26T13:13:09.993Z,63.08
2018-11-26T13:14:44.046Z,62.90
2018-11-26T13:16:18.169Z,63.83
2018-11-26T13:17:52.340Z,62.00
2018-11-26T13:19:26.524Z,64.65
2018-11-26T13:21:00.658Z,66.80
2018-11-26T13:22:34.829Z,68.70
2018-11-26T13:24:09.027Z,66.28
2018-11-26T13:25:43.288Z,76.40
2018-11-26T13:27:17.484Z,67.47
2018-11-26T13:28:51.665Z,78.47
2018-11-26T13:30:27.196Z,83.45
2018-11-26T13:32:01.334Z,73.57
2018-11-26T13:33:35.432Z,77.53
2018-11-26T13:35:11.851Z,83.27
2018-11-26T13:36:45.955Z,68.87
2018-11-26T13:38:20.209Z,73.17
2018-11-26T13:39:54.349Z,73.15
2018-11-26T13:41:28.427Z,75.67
2018-11-26T13:43:02.555Z,72.55
2018-11-26T13:44:36.707Z,77.78
2018-11-26T13:46:10.830Z,67.12
2018-11-26T13:47:44.937Z,68.45
2018-11-26T13:49:19.536Z,70.97
2018-11-26T13:50:57.603Z,73.33
2018-11-26T13:52:31.734Z,65.95
2018-11-26T13:54:05.927Z,65.25
2018-11-26T13:55:40.049Z,72.10
2018-11-26T13:57:15.605Z,68.20
2018-11-26T13:58:49.779Z,71.75
2018-11-26T14:00:23.867Z,74.20
2018-11-26T14:01:58.684Z,74.15
2018-11-26T14:05:28.822Z,71.90
2018-11-26T14:07:02.975Z,76.35
2018-11-26T14:08:37.242Z,73.17
2018-11-26T14:10:20.088Z,77.08
2018-11-26T16:06:22.810Z,51.37
2018-11-26T16:08:17.367Z,50.83
2018-11-26T16:10:00.369Z,54.83
2018-11-26T16:12:11.292Z,51.15
2018-11-26T16:15:57.022Z,48.75
2018-11-26T16:23:40.497Z,53.08
2018-11-26T16:59:52.405Z,50.92
2018-11-26T17:22:57.926Z,40.70
2018-11-26T17:24:32.519Z,38.50
2018-11-26T17:26:07.158Z,39.08
2018-11-26T17:28:08.873Z,38.13
2018-11-26T17:31:57.674Z,33.75
2018-11-26T17:58:02.311Z,36.75
2018-11-26T18:02:08.927Z,36.68
2018-11-26T18:06:08.351Z,38.73
2018-11-26T18:10:31.730Z,42.73
2018-11-26T18:18:39.691Z,41.77
2018-11-26T18:20:15.966Z,44.83
2018-11-26T18:21:56.491Z,45.17
2018-11-26T18:23:30.552Z,45.95
2018-11-26T18:25:04.686Z,39.33
2018-11-26T18:26:38.739Z,40.10
2018-11-26T18:28:14.141Z,43.08
2018-11-26T18:29:48.176Z,41.42
2018-11-26T18:31:22.278Z,45.10
2018-11-26T18:32:56.335Z,39.95
2018-11-26T18:34:30.368Z,41.30
2018-11-26T18:36:04.482Z,39.50
2018-11-26T18:37:38.475Z,50.90
2018-11-26T18:39:12.501Z,46.75
2018-11-26T18:40:48.163Z,39.75
2018-11-26T18:42:22.273Z,56.85
2018-11-26T18:43:56.239Z,39.55
2018-11-26T18:45:30.223Z,41.05
2018-11-26T18:47:04.212Z,39.90
2018-11-26T18:48:38.234Z,39.38
2018-11-26T18:50:19.514Z,36.58
2018-11-26T18:51:53.658Z,37.28
2018-11-26T18:53:27.676Z,37.05
2018-11-26T18:55:01.740Z,37.93
2018-11-26T18:56:35.773Z,36.60
2018-11-26T18:58:09.764Z,38.30
2018-11-26T18:59:44.450Z,37.48
2018-11-26T19:01:18.474Z,38.25
2018-11-26T19:04:35.526Z,37.40
2018-11-26T19:06:09.546Z,38.40
2018-11-26T19:07:43.652Z,43.17
2018-11-26T19:09:17.694Z,39.92
2018-11-26T19:10:54.857Z,40.25
2018-11-26T19:12:28.822Z,38.80
2018-11-26T19:14:07.476Z,45.25
2018-11-26T19:15:42.938Z,42.78
2018-11-26T19:17:17.773Z,41.85
2018-11-26T19:18:51.745Z,44.42
2018-11-26T19:20:25.786Z,47.48
2018-11-26T19:21:59.722Z,43.48
2018-11-26T19:23:33.758Z,44.95
2018-11-26T19:25:14.301Z,46.50
2018-11-26T19:26:48.274Z,46.77
2018-11-26T19:28:22.302Z,50.55
2018-11-26T19:29:56.346Z,52.78
2018-11-26T19:31:30.307Z,53.98
2018-11-26T19:33:04.361Z,53.80
2018-11-26T19:34:38.519Z,50.45
2018-11-26T19:36:12.557Z,54.05
2018-11-26T19:37:46.514Z,52.65
2018-11-26T19:39:20.454Z,54.15
2018-11-26T19:40:54.686Z,55.52
2018-11-26T19:42:28.767Z,54.05
2018-11-26T19:44:02.754Z,54.05
2018-11-26T19:45:37.095Z,54.18
2018-11-26T19:47:13.618Z,53.70
2018-11-26T19:48:47.665Z,56.63
2018-11-26T19:50:21.617Z,54.45
2018-11-26T19:51:55.549Z,56.90
2018-11-26T19:53:36.172Z,61.45
2018-11-26T19:55:15.730Z,58.95
2018-11-26T19:56:49.707Z,56.28
2018-11-26T19:58:23.671Z,57.75
2018-11-26T19:59:57.642Z,57.23
2018-11-26T20:01:31.695Z,56.18
2018-11-26T20:03:41.706Z,56.75
2018-11-26T20:05:23.194Z,61.25
2018-11-26T20:06:57.254Z,56.10
2018-11-26T20:08:31.353Z,58.68
2018-11-26T20:10:06.770Z,60.75
2018-11-26T20:11:40.818Z,56.85
2018-11-26T20:13:14.745Z,57.45
2018-11-26T20:14:48.801Z,54.33
2018-11-26T20:16:28.893Z,55.25
2018-11-26T20:18:03.018Z,56.02
2018-11-26T20:19:46.601Z,61.02
2018-11-26T20:21:20.649Z,53.38
2018-11-26T20:22:55.752Z,55.17
2018-11-26T20:24:29.914Z,54.95
2018-11-26T20:26:04.118Z,53.25
2018-11-26T20:27:38.399Z,55.75
2018-11-26T20:29:12.370Z,52.30
2018-11-26T20:30:46.404Z,56.48
2018-11-26T20:32:20.610Z,56.55
2018-11-26T20:33:54.773Z,58.80
2018-11-26T20:35:28.934Z,58.08
2018-11-26T20:37:02.882Z,60.03
2018-11-26T20:38:36.868Z,61.35
2018-11-26T20:40:16.132Z,61.88
2018-11-26T20:41:50.341Z,59.93
2018-11-26T20:43:24.286Z,58.28
2018-11-26T20:44:58.250Z,64.20
2018-11-26T20:46:32.306Z,65.60
2018-11-26T20:48:07.384Z,60.38
2018-11-26T20:49:41.394Z,60.92
2018-11-26T20:51:15.373Z,68.55
2018-11-26T20:52:49.378Z,61.33
2018-11-26T20:54:23.378Z,66.00
2018-11-26T20:55:57.417Z,62.08
2018-11-26T20:57:31.809Z,63.20
2018-11-26T20:59:08.093Z,71.70
2018-11-26T21:00:42.865Z,63.40
2018-11-26T21:02:18.182Z,60.12
2018-11-26T21:03:52.480Z,61.73
2018-11-26T21:05:26.507Z,61.10
2018-11-26T21:07:00.538Z,60.92
2018-11-26T21:08:34.593Z,58.20
2018-11-26T21:10:12.689Z,58.73
2018-11-26T21:11:46.646Z,59.70
2018-11-26T21:13:20.702Z,59.98
2018-11-26T21:14:54.658Z,60.88
2018-11-26T21:16:28.695Z,60.67
2018-11-26T21:18:06.694Z,61.33
2018-11-26T21:19:40.693Z,66.82
2018-11-26T21:21:14.730Z,56.35
2018-11-26T21:22:48.685Z,63.70
2018-11-26T21:24:22.690Z,68.00
2018-11-26T21:25:57.782Z,58.08
2018-11-26T21:27:31.762Z,59.48
2018-11-26T21:29:05.925Z,60.98
2018-11-26T21:30:39.950Z,64.12
2018-11-26T21:32:13.990Z,65.00
2018-11-26T21:33:47.929Z,66.62
2018-11-26T21:35:21.870Z,59.67
2018-11-26T21:36:55.900Z,67.20
2018-11-26T21:38:31.707Z,63.48
2018-11-26T21:40:07.719Z,64.32
2018-11-26T21:41:41.979Z,62.23
2018-11-26T21:43:16.377Z,65.10
2018-11-26T21:44:50.583Z,62.95
2018-11-26T21:46:24.905Z,57.43
2018-11-26T21:47:59.187Z,57.83
2018-11-26T21:49:33.527Z,62.35
2018-11-26T21:51:07.725Z,59.13
2018-11-26T21:52:41.969Z,57.43
2018-11-26T21:54:16.134Z,56.60
2018-11-26T21:55:50.483Z,60.40
2018-11-26T21:57:24.660Z,62.85
2018-11-26T21:58:58.758Z,60.12
2018-11-26T22:00:34.143Z,60.83
2018-11-26T22:03:58.427Z,61.45
2018-11-26T22:05:32.422Z,64.77
2018-11-26T22:07:06.528Z,63.52
2018-11-26T22:08:40.664Z,61.60
2018-11-26T22:10:16.059Z,66.82
2018-11-26T22:11:50.131Z,69.58
2018-11-26T22:13:24.167Z,64.53
2018-11-26T22:14:59.078Z,69.17
2018-11-26T22:16:34.130Z,67.65
2018-11-26T22:18:08.559Z,70.40
2018-11-26T22:19:42.518Z,74.67
2018-11-26T22:21:16.481Z,73.07
2018-11-26T22:22:50.514Z,72.08
2018-11-26T22:24:24.525Z,69.82
2018-11-26T22:25:58.553Z,73.78
2018-11-26T22:27:32.535Z,69.50
2018-11-26T22:29:09.510Z,73.83
2018-11-26T22:30:43.463Z,68.25
2018-11-26T22:32:17.406Z,66.20
2018-11-26T22:33:54.538Z,69.32
2018-11-26T22:35:28.563Z,71.47
2018-11-26T22:37:02.492Z,66.92
2018-11-26T22:38:36.502Z,68.10
2018-11-26T22:40:15.254Z,65.92
2018-11-26T22:43:45.081Z,65.65
2018-11-26T22:45:24.474Z,68.67
2018-11-26T22:46:58.472Z,70.30
2018-11-26T22:48:32.435Z,70.85
2018-11-26T22:50:11.610Z,63.30
2018-11-26T22:51:45.759Z,68.25
2018-11-26T22:53:25.083Z,68.65
2018-11-26T22:54:59.033Z,66.97
2018-11-26T22:56:33.063Z,65.37
2018-11-26T22:58:08.686Z,66.17
2018-11-26T22:59:42.946Z,70.62
2018-11-26T23:01:16.995Z,69.15
2018-11-26T23:02:51.445Z,66.70
2018-11-26T23:04:25.438Z,66.33
2018-11-26T23:05:59.463Z,67.22
2018-11-26T23:07:33.448Z,70.42
2018-11-26T23:09:08.725Z,60.98
2018-11-26T23:10:42.714Z,65.87
2018-11-26T23:12:16.711Z,67.95
2018-11-26T23:13:50.670Z,58.15
2018-11-26T23:15:24.700Z,60.75
2018-11-26T23:16:58.675Z,62.62
2018-11-26T23:18:32.664Z,53.70
2018-11-26T23:20:09.306Z,57.03
2018-11-26T23:21:43.317Z,54.03
2018-11-26T23:23:17.297Z,58.42
2018-11-26T23:24:51.265Z,57.43
2018-11-26T23:26:25.288Z,52.90
2018-11-26T23:27:59.242Z,56.02
2018-11-26T23:29:33.211Z,56.42
2018-11-26T23:31:07.338Z,57.70
2018-11-26T23:32:41.383Z,56.68
2018-11-26T23:34:15.342Z,60.90
2018-11-26T23:35:49.410Z,56.15
2018-11-26T23:37:23.343Z,54.90
2018-11-26T23:39:03.991Z,55.90
2018-11-26T23:40:38.010Z,52.05
2018-11-26T23:42:11.958Z,53.45
2018-11-26T23:43:45.953Z,53.90
2018-11-26T23:45:21.051Z,55.38
2018-11-26T23:46:55.075Z,55.28
2018-11-26T23:48:29.026Z,52.60
2018-11-26T23:50:03.006Z,50.12
2018-11-26T23:51:37.063Z,52.08
2018-11-26T23:53:10.988Z,55.63
2018-11-26T23:54:44.946Z,53.00
2018-11-26T23:56:18.934Z,47.60
2018-11-26T23:57:52.981Z,56.35